.
WxDataArchive / Data Records for 2014-10-13
2014-10-12 October 2014 2014-10-14

Data Records for Monday, 13 October 2014

Time	Temp	Chill	HIndex	Humid	Dewpt	 Wind 	HiWind	WindDir	Rain 	Barom
-----	----	-----	------	-----	-----	------	------	-------	-----	-----
00:00	54.7	54.7	54.7	70	45.1	0	1	68	0.00	29.948 
00:05	54.7	54.7	54.7	70	45.1	0	1	68	0.00	29.948 
00:10	54.7	54.7	54.7	70	45.1	0	1	68	0.00	29.948 
00:15	54.7	54.7	54.7	71	45.5	0	1	68	0.00	29.939 
00:20	54.7	54.7	54.7	71	45.5	0	1	68	0.00	29.939 
00:25	54.7	54.7	54.7	71	45.5	0	1	68	0.00	29.939 
00:30	54.7	54.7	54.7	72	45.9	0	0	---	0.00	29.934 
00:35	54.7	54.7	54.7	72	45.9	0	2	68	0.00	29.934 
00:40	54.7	54.7	54.7	72	45.9	0	2	68	0.00	29.934 
00:45	54.7	54.7	54.7	73	46.2	0	1	68	0.00	29.930 
00:50	54.7	54.7	54.7	73	46.2	0	1	68	0.00	29.930 
00:55	54.7	54.7	54.7	73	46.2	0	1	68	0.00	29.930 
01:00	54.7	54.7	54.7	75	46.9	0	1	68	0.00	29.930 
01:05	54.7	54.7	54.7	77	47.6	0	0	---	0.00	29.930 
01:10	54.5	54.5	54.5	77	47.4	0	1	68	0.00	29.930 
01:15	54.4	54.4	54.4	79	48.0	0	0	---	0.00	29.919 
01:20	54.2	54.2	54.2	80	48.2	0	1	68	0.00	29.919 
01:25	54.1	54.1	54.1	81	48.4	0	0	---	0.00	29.919 
01:30	54.1	54.1	54.1	81	48.4	0	0	---	0.00	29.914 
01:35	53.9	53.9	53.9	82	48.5	0	0	---	0.00	29.914 
01:40	53.9	53.9	53.9	83	48.9	0	1	68	0.00	29.914 
01:45	53.9	53.9	53.9	84	49.2	0	1	68	0.00	29.912 
01:50	53.9	53.9	53.9	84	49.2	0	1	68	0.00	29.912 
01:55	53.9	53.9	53.9	85	49.5	0	0	---	0.00	29.912 
02:00	53.9	53.9	53.9	85	49.5	0	0	---	0.00	29.916 
02:05	54.1	54.1	54.1	86	50.0	0	1	68	0.00	29.916 
02:10	54.1	54.1	54.1	86	50.0	0	1	68	0.01	29.916 
02:15	54.1	54.1	54.1	87	50.3	0	1	68	0.01	29.913 
02:20	54.1	54.1	54.1	88	50.6	0	1	68	0.00	29.913 
02:25	54.1	54.1	54.1	88	50.6	0	0	---	0.00	29.913 
02:30	54.1	54.1	54.1	89	50.9	0	1	68	0.00	29.908 
02:35	54.2	54.2	54.2	89	51.0	0	0	---	0.00	29.908 
02:40	54.4	54.4	54.4	90	51.5	0	1	68	0.04	29.908 
02:45	54.7	54.7	54.7	91	52.1	0	1	68	0.04	29.911 
02:50	55.1	55.1	55.1	92	52.8	0	1	68	0.00	29.911 
02:55	55.6	55.6	55.6	92	53.3	0	1	68	0.00	29.911 
03:00	55.7	55.7	55.7	92	53.4	0	0	---	0.00	29.910 
03:05	56.0	56.0	56.0	93	54.0	0	0	---	0.00	29.910 
03:10	56.2	56.2	56.2	93	54.2	0	2	68	0.00	29.910 
03:15	56.7	56.7	56.7	94	55.0	0	2	68	0.00	29.906 
03:20	57.5	57.5	57.5	94	55.8	0	1	68	0.00	29.906 
03:25	58.1	58.1	58.1	94	56.4	0	1	68	0.00	29.906 
03:30	58.4	58.4	58.4	94	56.7	0	1	68	0.00	29.894 
03:35	58.6	58.6	58.6	94	56.9	0	1	68	0.00	29.894 
03:40	58.6	58.6	58.6	94	56.9	0	0	---	0.00	29.894 
03:45	58.7	58.7	58.7	94	57.0	0	0	---	0.00	29.887 
03:50	58.6	58.6	58.6	94	56.9	0	0	---	0.00	29.887 
03:55	58.6	58.6	58.6	94	56.9	0	0	---	0.00	29.887 
04:00	58.6	58.6	58.6	94	56.9	0	0	---	0.00	29.888 
04:05	58.4	58.4	58.4	94	56.7	0	0	---	0.00	29.888 
04:10	58.4	58.4	58.4	94	56.7	0	0	---	0.01	29.888 
04:15	58.6	58.6	58.6	95	57.2	0	0	---	0.00	29.878 
04:20	58.6	58.6	58.6	95	57.2	0	0	---	0.00	29.878 
04:25	58.6	58.6	58.6	95	57.2	0	1	68	0.00	29.878 
04:30	58.6	58.6	58.6	95	57.2	0	0	---	0.00	29.882 
04:35	58.7	58.7	58.7	95	57.3	0	1	68	0.00	29.882 
04:40	58.7	58.7	58.7	95	57.3	0	0	---	0.00	29.882 
04:45	58.7	58.7	58.7	95	57.3	0	0	---	0.00	29.878 
04:50	58.7	58.7	58.7	95	57.3	0	0	---	0.00	29.878 
04:55	58.9	58.9	58.9	95	57.5	0	0	---	0.00	29.878 
05:00	58.9	58.9	58.9	95	57.5	0	0	---	0.00	29.879 
05:05	58.9	58.9	58.9	95	57.5	0	0	---	0.00	29.879 
05:10	59.0	59.0	59.0	95	57.6	0	0	---	0.00	29.879 
05:15	59.3	59.3	59.3	95	57.9	0	1	68	0.00	29.880 
05:20	59.5	59.5	59.5	95	58.1	0	0	---	0.00	29.880 
05:25	59.5	59.5	59.5	95	58.1	0	0	---	0.00	29.880 
05:30	59.5	59.5	59.5	95	58.1	0	0	---	0.00	29.889 
05:35	59.6	59.6	59.6	95	58.2	0	0	---	0.00	29.889 
05:40	59.8	59.8	59.8	95	58.4	0	0	---	0.00	29.889 
05:45	59.9	59.9	59.9	96	58.8	0	1	68	0.00	29.891 
05:50	60.1	60.1	60.1	96	59.0	0	3	68	0.00	29.891 
05:55	60.2	60.2	60.2	96	59.1	0	0	---	0.00	29.891 
06:00	60.4	60.4	60.4	96	59.3	0	0	---	0.00	29.892 
06:05	60.4	60.4	60.4	96	59.3	0	1	68	0.00	29.892 
06:10	60.5	60.5	60.5	96	59.4	0	0	---	0.00	29.892 
06:15	60.5	60.5	60.5	96	59.4	0	1	68	0.00	29.889 
06:20	60.5	60.5	60.5	96	59.4	0	0	---	0.00	29.889 
06:25	60.5	60.5	60.5	96	59.4	0	1	68	0.00	29.889 
06:30	60.5	60.5	60.5	96	59.4	0	1	68	0.00	29.891 
06:35	60.5	60.5	60.5	96	59.4	0	1	68	0.00	29.891 
06:40	60.5	60.5	60.5	96	59.4	0	0	---	0.00	29.891 
06:45	60.7	60.7	60.7	96	59.6	0	1	68	0.00	29.890 
06:50	60.7	60.7	60.7	96	59.6	0	2	68	0.00	29.890 
06:55	60.7	60.7	60.7	96	59.6	0	1	68	0.00	29.890 
07:00	60.9	60.9	60.9	96	59.7	0	1	68	0.00	29.886 
07:05	60.9	60.9	60.9	96	59.7	0	2	68	0.00	29.886 
07:10	60.9	60.9	60.9	96	59.7	0	1	68	0.00	29.886 
07:15	61.0	61.0	61.0	96	59.8	0	1	68	0.00	29.883 
07:20	61.0	61.0	61.0	96	59.8	0	1	68	0.00	29.883 
07:25	61.2	61.2	61.2	96	60.0	0	1	68	0.00	29.883 
07:30	61.2	61.2	61.2	96	60.0	0	1	68	0.00	29.891 
07:35	61.2	61.2	61.2	96	60.0	0	0	---	0.00	29.891 
07:40	61.2	61.2	61.2	96	60.0	0	0	---	0.00	29.891 
07:45	61.3	61.3	61.3	96	60.1	0	1	68	0.00	29.889 
07:50	61.3	61.3	61.3	96	60.1	0	0	---	0.00	29.889 
07:55	61.3	61.3	61.3	96	60.1	0	1	68	0.00	29.889 
08:00	61.3	61.3	61.3	96	60.1	0	1	68	0.00	29.890 
08:05	61.3	61.3	61.3	96	60.1	0	0	---	0.00	29.890 
08:10	61.3	61.3	61.3	96	60.1	0	0	---	0.00	29.890 
08:15	61.3	61.3	61.3	96	60.1	0	1	68	0.00	29.891 
08:20	61.3	61.3	61.3	96	60.1	0	2	68	0.00	29.891 
08:25	61.5	61.5	61.5	96	60.3	0	1	68	0.00	29.891 
08:30	61.5	61.5	61.5	96	60.3	0	2	68	0.00	29.889 
08:35	61.6	61.6	61.6	96	60.4	0	2	68	0.00	29.889 
08:40	61.6	61.6	61.6	96	60.4	0	1	68	0.00	29.889 
08:45	61.8	61.8	61.8	96	60.6	0	1	68	0.00	29.896 
08:50	62.0	62.0	62.0	96	60.8	0	1	68	0.00	29.896 
08:55	62.1	62.1	62.1	96	60.9	0	0	---	0.00	29.896 
09:00	62.3	62.3	62.3	96	61.1	0	1	68	0.00	29.904 
09:05	62.4	62.4	62.4	96	61.2	0	1	68	0.00	29.904 
09:10	62.4	62.4	62.4	96	61.2	0	1	68	0.00	29.904 
09:15	62.6	62.6	62.6	96	61.4	0	1	68	0.00	29.906 
09:20	62.6	62.6	62.6	96	61.4	0	2	68	0.00	29.906 
09:25	62.7	62.7	62.7	96	61.5	0	1	68	0.00	29.906 
09:30	62.9	62.9	62.9	96	61.7	0	1	90	0.00	29.907 
09:35	63.1	63.1	63.1	96	61.9	1	4	90	0.01	29.907 
09:40	63.2	63.2	63.2	96	62.0	0	2	112	0.00	29.907 
09:45	63.4	63.4	63.4	96	62.2	0	1	112	0.01	29.910 
09:50	63.4	63.4	63.4	96	62.2	0	2	112	0.01	29.910 
09:55	63.5	63.5	63.5	96	62.3	1	3	68	0.00	29.910 
10:00	63.5	63.5	63.5	96	62.3	0	2	45	0.00	29.908 
10:05	63.7	63.7	63.7	96	62.5	0	1	0	0.00	29.908 
10:10	63.9	63.9	63.9	96	62.7	0	3	270	0.00	29.908 
10:15	64.0	64.0	64.0	96	62.8	0	2	270	0.00	29.908 
10:20	64.3	64.3	64.3	96	63.1	0	3	270	0.00	29.908 
10:25	64.8	64.8	64.8	96	63.6	0	2	292	0.00	29.908 
10:30	65.0	65.0	65.0	96	63.8	0	2	292	0.00	29.905 
10:35	65.0	65.0	65.0	96	63.8	0	1	292	0.00	29.905 
10:40	65.0	65.0	65.0	96	63.8	0	2	292	0.00	29.905 
10:45	65.0	65.0	65.0	96	63.8	0	3	270	0.00	29.901 
10:50	65.0	65.0	65.0	96	63.8	0	4	270	0.00	29.901 
10:55	64.8	64.8	64.8	96	63.6	0	3	248	0.01	29.901 
11:00	64.7	64.7	64.7	96	63.5	0	2	248	0.01	29.903 
11:05	64.7	64.7	64.7	96	63.5	0	2	248	0.00	29.903 
11:10	64.7	64.7	64.7	96	63.5	0	2	248	0.01	29.903 
11:15	64.7	64.7	64.7	96	63.5	0	2	248	0.00	29.899 
11:20	64.7	64.7	64.7	96	63.5	0	2	248	0.00	29.899 
11:25	64.8	64.8	64.8	96	63.6	0	3	270	0.00	29.899 
11:30	65.0	65.0	65.0	96	63.8	0	1	270	0.00	29.898 
11:35	65.2	65.2	65.2	96	64.0	0	2	270	0.00	29.898 
11:40	65.3	65.3	65.3	96	64.1	0	4	248	0.00	29.898 
11:45	65.5	65.5	65.5	96	64.3	0	3	248	0.00	29.904 
11:50	65.6	65.6	65.6	96	64.4	0	1	248	0.00	29.904 
11:55	65.6	65.6	65.6	96	64.4	0	2	248	0.00	29.904 
12:00	65.6	65.6	65.6	96	64.4	1	4	248	0.00	29.899 
12:05	65.8	65.8	65.8	95	64.3	0	2	270	0.00	29.899 
12:10	65.8	65.8	65.8	95	64.3	0	3	270	0.00	29.899 
12:15	66.1	66.1	66.1	95	64.6	0	2	270	0.00	29.890 
12:20	66.1	66.1	66.1	95	64.6	0	3	270	0.00	29.890 
12:25	66.1	66.1	66.1	94	64.3	0	2	270	0.00	29.890 
12:30	66.1	66.1	66.1	94	64.3	0	1	270	0.00	29.882 
12:35	66.1	66.1	66.1	94	64.3	0	4	292	0.00	29.882 
12:40	66.3	66.3	66.3	94	64.5	0	2	315	0.00	29.882 
12:45	66.6	66.6	66.6	94	64.8	0	1	315	0.00	29.877 
12:50	66.6	66.6	66.6	93	64.5	0	2	270	0.00	29.877 
12:55	66.8	66.8	66.8	93	64.7	0	4	270	0.00	29.877 
13:00	66.6	66.6	66.6	93	64.5	0	3	292	0.00	29.872 
13:05	66.6	66.6	66.6	92	64.2	1	4	68	0.00	29.872 
13:10	66.6	66.6	66.6	92	64.2	0	4	292	0.00	29.872 
13:15	66.6	66.6	66.6	92	64.2	0	3	292	0.00	29.875 
13:20	66.8	66.8	66.8	92	64.4	0	1	292	0.00	29.875 
13:25	66.9	66.9	66.9	92	64.5	0	2	292	0.00	29.875 
13:30	67.4	67.4	67.4	92	65.0	0	1	292	0.00	29.873 
13:35	67.6	67.6	67.6	92	65.2	0	1	292	0.00	29.873 
13:40	67.8	67.8	67.8	91	65.1	0	2	292	0.00	29.873 
13:45	68.3	68.3	68.3	91	65.6	0	1	292	0.00	29.863 
13:50	68.8	68.8	68.8	91	66.1	0	3	292	0.00	29.863 
13:55	69.3	69.3	69.3	89	65.9	0	3	248	0.00	29.863 
14:00	69.6	69.6	69.6	89	66.2	0	1	248	0.00	29.845 
14:05	70.1	70.1	70.1	87	66.0	0	3	248	0.00	29.845 
14:10	70.6	70.6	70.6	86	66.2	0	3	292	0.00	29.845 
14:15	71.3	71.3	71.3	84	66.2	1	4	292	0.00	29.829 
14:20	71.6	71.6	71.6	82	65.8	0	2	45	0.00	29.829 
14:25	71.8	71.8	71.8	81	65.6	1	4	45	0.00	29.829 
14:30	72.3	72.3	72.3	79	65.4	0	2	270	0.00	29.825 
14:35	72.8	72.8	72.8	79	65.9	0	2	90	0.00	29.825 
14:40	73.0	73.0	73.0	76	65.0	1	3	0	0.00	29.825 
14:45	73.3	73.3	73.3	76	65.3	0	3	0	0.00	29.822 
14:50	73.5	73.5	73.5	75	65.1	0	2	315	0.00	29.822 
14:55	73.5	73.5	73.5	73	64.3	1	5	68	0.00	29.822 
15:00	73.5	73.5	73.5	74	64.7	0	5	112	0.00	29.817 
15:05	73.7	73.7	73.7	71	63.7	1	4	90	0.00	29.817 
15:10	74.0	74.0	74.0	72	64.4	0	2	90	0.00	29.817 
15:15	74.4	74.4	74.4	70	64.0	1	6	0	0.00	29.804 
15:20	74.7	74.7	74.7	70	64.2	0	2	90	0.00	29.804 
15:25	75.1	75.1	76.9	69	64.2	0	2	90	0.00	29.804 
15:30	75.6	75.6	77.4	68	64.3	1	4	112	0.00	29.799 
15:35	75.8	75.8	77.7	66	63.6	0	2	112	0.00	29.799 
15:40	75.6	75.6	77.4	67	63.9	0	3	112	0.00	29.799 
15:45	75.3	75.3	77.3	65	62.7	0	2	112	0.00	29.801 
15:50	75.1	75.1	77.2	64	62.1	0	2	45	0.00	29.801 
15:55	75.3	75.3	77.4	63	61.8	1	3	22	0.00	29.801 
16:00	75.4	75.4	77.5	63	61.9	0	3	90	0.00	29.799 
16:05	75.6	75.6	77.7	62	61.6	0	3	90	0.00	29.799 
16:10	75.6	75.6	77.7	62	61.6	0	2	90	0.00	29.799 
16:15	75.4	75.4	77.5	62	61.5	1	3	90	0.00	29.785 
16:20	75.4	75.4	77.5	62	61.5	0	2	90	0.00	29.785 
16:25	75.4	75.4	77.6	61	61.0	1	5	90	0.00	29.785 
16:30	75.4	75.4	77.6	61	61.0	1	3	315	0.00	29.786 
16:35	75.6	75.6	77.7	62	61.6	0	2	338	0.00	29.786 
16:40	75.6	75.6	77.7	62	61.6	0	2	0	0.00	29.786 
16:45	75.4	75.4	77.5	62	61.5	0	3	0	0.00	29.783 
16:50	75.4	75.4	77.5	62	61.5	1	3	68	0.00	29.783 
16:55	75.3	75.3	77.5	62	61.4	1	4	90	0.00	29.783 
17:00	75.3	75.3	77.5	62	61.4	1	5	90	0.00	29.782 
17:05	75.3	75.3	77.4	63	61.8	1	4	112	0.00	29.782 
17:10	75.3	75.3	77.4	63	61.8	0	3	112	0.00	29.782 
17:15	75.3	75.3	77.4	63	61.8	0	4	45	0.00	29.772 
17:20	75.3	75.3	77.4	63	61.8	1	4	45	0.00	29.772 
17:25	75.3	75.3	77.4	63	61.8	1	3	112	0.00	29.772 
17:30	75.3	75.3	77.5	62	61.4	1	4	112	0.00	29.777 
17:35	75.3	75.3	77.4	63	61.8	1	3	90	0.00	29.777 
17:40	75.1	75.1	77.3	63	61.6	1	7	68	0.00	29.777 
17:45	74.9	74.9	74.9	63	61.4	1	3	90	0.00	29.777 
17:50	74.7	74.7	74.7	64	61.7	1	4	90	0.00	29.777 
17:55	74.6	74.6	74.6	64	61.6	0	1	68	0.00	29.777 
18:00	74.4	74.4	74.4	65	61.8	0	3	90	0.00	29.775 
18:05	74.2	74.2	74.2	65	61.7	1	3	90	0.00	29.775 
18:10	74.2	74.2	74.2	65	61.7	0	2	90	0.00	29.775 
18:15	74.0	74.0	74.0	65	61.5	0	3	90	0.00	29.782 
18:20	73.9	73.9	73.9	66	61.8	0	4	90	0.00	29.782 
18:25	73.7	73.7	73.7	66	61.6	0	4	90	0.00	29.782 
18:30	73.7	73.7	73.7	66	61.6	0	3	90	0.00	29.778 
18:35	73.5	73.5	73.5	67	61.9	0	2	90	0.00	29.778 
18:40	73.5	73.5	73.5	67	61.9	0	2	90	0.00	29.778 
18:45	73.3	73.3	73.3	67	61.7	0	2	90	0.00	29.773 
18:50	73.3	73.3	73.3	67	61.7	0	3	90	0.00	29.773 
18:55	73.2	73.2	73.2	67	61.6	0	3	90	0.00	29.773 
19:00	73.0	73.0	73.0	68	61.8	0	2	90	0.00	29.775 
19:05	73.0	73.0	73.0	68	61.8	1	4	68	0.00	29.775 
19:10	72.8	72.8	72.8	69	62.0	1	2	158	0.00	29.775 
19:15	72.5	72.5	72.5	69	61.7	0	4	135	0.00	29.770 
19:20	72.3	72.3	72.3	70	62.0	0	3	112	0.00	29.770 
19:25	72.1	72.1	72.1	71	62.2	0	1	112	0.00	29.770 
19:30	72.0	72.0	72.0	71	62.1	0	2	112	0.00	29.770 
19:35	71.8	71.8	71.8	72	62.3	0	2	225	0.00	29.770 
19:40	71.6	71.6	71.6	72	62.1	1	5	135	0.00	29.770 
19:45	71.5	71.5	71.5	73	62.4	0	2	112	0.00	29.764 
19:50	71.3	71.3	71.3	73	62.2	0	1	112	0.00	29.764 
19:55	71.1	71.1	71.1	74	62.4	0	1	112	0.00	29.764 
20:00	70.9	70.9	70.9	75	62.6	0	3	112	0.00	29.761 
20:05	70.8	70.8	70.8	75	62.5	0	2	112	0.00	29.761 
20:10	70.6	70.6	70.6	76	62.7	0	2	112	0.00	29.761 
20:15	70.4	70.4	70.4	76	62.5	0	3	112	0.00	29.757 
20:20	70.3	70.3	70.3	77	62.7	0	1	225	0.00	29.757 
20:25	70.1	70.1	70.1	77	62.5	1	4	112	0.00	29.757 
20:30	70.1	70.1	70.1	78	62.9	0	1	112	0.00	29.755 
20:35	69.9	69.9	69.9	78	62.7	1	3	248	0.00	29.755 
20:40	69.9	69.9	69.9	78	62.7	0	2	270	0.00	29.755 
20:45	69.9	69.9	69.9	78	62.7	0	3	45	0.00	29.754 
20:50	69.8	69.8	69.8	79	63.0	0	2	45	0.00	29.754 
20:55	69.8	69.8	69.8	79	63.0	0	2	68	0.00	29.754 
21:00	69.6	69.6	69.6	79	62.8	0	3	112	0.00	29.748 
21:05	69.4	69.4	69.4	80	63.0	0	1	112	0.00	29.748 
21:10	69.3	69.3	69.3	80	62.9	0	2	112	0.00	29.748 
21:15	69.3	69.3	69.3	80	62.9	0	2	90	0.00	29.741 
21:20	69.3	69.3	69.3	80	62.9	0	3	202	0.00	29.741 
21:25	69.3	69.3	69.3	80	62.9	0	2	135	0.00	29.741 
21:30	69.4	69.4	69.4	80	63.0	1	3	112	0.00	29.732 
21:35	69.4	69.4	69.4	79	62.6	0	2	112	0.00	29.732 
21:40	69.6	69.6	69.6	79	62.8	0	3	112	0.00	29.732 
21:45	69.6	69.6	69.6	78	62.4	0	3	135	0.00	29.725 
21:50	69.8	69.8	69.8	78	62.6	0	4	112	0.00	29.725 
21:55	69.8	69.8	69.8	78	62.6	0	2	112	0.00	29.725 
22:00	69.8	69.8	69.8	77	62.3	0	2	112	0.00	29.728 
22:05	69.8	69.8	69.8	77	62.3	0	3	112	0.00	29.728 
22:10	69.9	69.9	69.9	77	62.3	1	2	112	0.00	29.728 
22:15	69.9	69.9	69.9	77	62.3	1	4	112	0.00	29.724 
22:20	70.1	70.1	70.1	77	62.5	1	5	135	0.00	29.724 
22:25	70.1	70.1	70.1	77	62.5	1	4	112	0.00	29.724 
22:30	70.3	70.3	70.3	77	62.7	1	3	112	0.00	29.720 
22:35	70.3	70.3	70.3	77	62.7	1	4	68	0.00	29.720 
22:40	70.3	70.3	70.3	77	62.7	1	6	90	0.00	29.720 
22:45	70.3	70.3	70.3	77	62.7	1	4	90	0.00	29.716 
22:50	70.4	70.4	70.4	77	62.8	1	4	90	0.00	29.716 
22:55	70.4	70.4	70.4	77	62.8	1	4	90	0.00	29.716 
23:00	70.4	70.4	70.4	77	62.8	1	3	292	0.00	29.711 
23:05	70.4	70.4	70.4	77	62.8	1	6	68	0.00	29.711 
23:10	70.4	70.4	70.4	77	62.8	1	4	112	0.00	29.711 
23:15	70.6	70.6	70.6	76	62.7	1	4	90	0.00	29.701 
23:20	70.6	70.6	70.6	76	62.7	2	5	90	0.00	29.701 
23:25	70.6	70.6	70.6	76	62.7	1	5	90	0.00	29.701 
23:30	70.6	70.6	70.6	75	62.3	2	5	112	0.00	29.695 
23:35	70.8	70.8	70.8	75	62.5	2	6	112	0.00	29.695 
23:40	70.8	70.8	70.8	75	62.5	2	6	90	0.00	29.695 
23:45	70.8	70.8	70.8	75	62.5	2	9	112	0.00	29.683 
23:50	70.8	70.8	70.8	75	62.5	2	5	90	0.00	29.683 
23:55	70.8	70.8	70.8	74	62.1	2	9	90	0.00	29.683 

CoCoRaHS
IN-AL-39
A2 Web Hosting
Creative Commons License
GoDaddy
search engine by freefind advanced

loaded 2018-11-15 17:42:46 • last modified 2010-11-18 10:43:29
Privacy PolicyDisclaimer
• wx.awcolley.com is powered by PmWiki v.2002016 •
• all content (unless otherwise noted) © 2018 A W Colley